createdAt,value
2022-12-23T00:01:34.470Z,1.53
2022-12-23T00:04:02.711Z,1.54
2022-12-23T00:06:31.012Z,1.61
2022-12-23T00:09:00.176Z,1.66
2022-12-23T00:11:29.339Z,1.66
2022-12-23T00:14:21.110Z,1.65
2022-12-23T00:16:51.276Z,1.67
2022-12-23T00:19:19.852Z,1.70
2022-12-23T00:21:48.832Z,1.73
2022-12-23T00:24:17.460Z,1.74
2022-12-23T00:26:45.815Z,1.69
2022-12-23T00:29:14.010Z,1.62
2022-12-23T00:31:42.485Z,1.54
2022-12-23T00:34:12.176Z,1.52
2022-12-23T00:36:41.055Z,1.52
2022-12-23T00:39:31.374Z,1.47
2022-12-23T00:42:18.172Z,1.44
2022-12-23T00:44:46.353Z,1.47
2022-12-23T00:47:34.755Z,1.54
2022-12-23T00:50:02.875Z,1.64
2022-12-23T00:52:31.258Z,1.69
2022-12-23T00:54:59.387Z,1.74
2022-12-23T00:57:27.506Z,1.75
2022-12-23T00:59:55.741Z,1.71
2022-12-23T01:02:42.921Z,1.74
2022-12-23T01:05:29.865Z,1.70
2022-12-23T01:07:58.098Z,1.66
2022-12-23T01:10:26.397Z,1.63
2022-12-23T01:12:54.965Z,1.62
2022-12-23T01:15:23.956Z,1.60
2022-12-23T01:17:51.988Z,1.63
2022-12-23T01:20:20.806Z,1.68
2022-12-23T01:22:48.944Z,1.65
2022-12-23T01:25:17.800Z,1.63
2022-12-23T01:27:45.965Z,1.55
2022-12-23T01:30:14.565Z,1.59
2022-12-23T01:32:42.746Z,1.64
2022-12-23T01:35:11.018Z,1.64
2022-12-23T01:37:39.297Z,1.60
2022-12-23T01:40:09.349Z,1.51
2022-12-23T01:42:43.723Z,1.55
2022-12-23T01:45:16.837Z,1.55
2022-12-23T01:47:51.565Z,1.55
2022-12-23T01:50:27.902Z,1.65
2022-12-23T01:53:22.414Z,1.66
2022-12-23T01:55:55.930Z,1.60
2022-12-23T01:58:39.394Z,1.52
2022-12-23T02:01:27.479Z,1.54
2022-12-23T02:03:59.722Z,1.51
2022-12-23T02:06:52.312Z,1.53
2022-12-23T02:09:30.515Z,1.49
2022-12-23T02:12:29.833Z,1.50
2022-12-23T02:15:50.805Z,1.50
2022-12-23T02:18:34.543Z,1.50
2022-12-23T02:21:24.785Z,1.54
2022-12-23T02:24:08.712Z,1.50
2022-12-23T02:27:09.963Z,1.38
2022-12-23T02:29:47.254Z,1.25
2022-12-23T02:32:27.789Z,1.20
2022-12-23T02:35:05.385Z,1.23
2022-12-23T02:37:40.708Z,1.22
2022-12-23T02:40:38.757Z,1.16
2022-12-23T02:43:44.716Z,1.15
2022-12-23T02:46:32.973Z,1.13
2022-12-23T02:49:04.701Z,1.17
2022-12-23T02:51:41.681Z,1.15
2022-12-23T02:54:16.033Z,1.17
2022-12-23T02:56:50.682Z,1.19
2022-12-23T02:59:23.350Z,1.15
2022-12-23T03:01:54.219Z,1.06
2022-12-23T03:04:22.544Z,1.07
2022-12-23T03:06:53.998Z,1.02
2022-12-23T03:09:43.254Z,0.99
2022-12-23T03:12:24.143Z,1.02
2022-12-23T03:15:11.045Z,1.14
2022-12-23T03:17:49.178Z,1.20
2022-12-23T03:20:29.249Z,1.25
2022-12-23T03:23:26.467Z,1.28
2022-12-23T03:26:03.714Z,1.27
2022-12-23T03:28:40.255Z,1.26
2022-12-23T03:31:13.379Z,1.25
2022-12-23T03:33:46.704Z,1.20
2022-12-23T03:36:22.480Z,1.18
2022-12-23T03:38:53.882Z,1.23
2022-12-23T03:41:29.121Z,1.22
2022-12-23T03:44:03.120Z,1.20
2022-12-23T03:46:52.839Z,1.20
2022-12-23T03:49:31.058Z,1.24
2022-12-23T03:52:04.492Z,1.28
2022-12-23T03:54:48.611Z,1.35
2022-12-23T03:57:20.394Z,1.45
2022-12-23T03:59:53.516Z,1.50
2022-12-23T04:03:10.905Z,1.50
2022-12-23T04:05:49.736Z,1.52
2022-12-23T04:08:30.176Z,1.50
2022-12-23T04:10:59.595Z,1.52
2022-12-23T04:13:29.103Z,1.54
2022-12-23T04:16:01.988Z,1.56
2022-12-23T04:18:30.468Z,1.63
2022-12-23T04:20:59.691Z,1.66
2022-12-23T04:23:27.843Z,1.70
2022-12-23T04:25:56.851Z,1.72
2022-12-23T04:28:25.161Z,1.75
2022-12-23T04:30:53.391Z,1.79
2022-12-23T04:33:21.652Z,1.82
2022-12-23T04:35:49.766Z,1.79
2022-12-23T04:38:17.923Z,1.80
2022-12-23T04:40:47.426Z,1.81
2022-12-23T04:43:15.630Z,1.80
2022-12-23T04:45:43.838Z,1.81
2022-12-23T04:48:12.073Z,1.86
2022-12-23T04:50:40.747Z,1.94
2022-12-23T04:53:09.225Z,1.98
2022-12-23T04:55:37.514Z,2.06
2022-12-23T04:58:05.796Z,2.08
2022-12-23T05:00:39.223Z,2.05
2022-12-23T05:03:08.335Z,2.11
2022-12-23T05:05:36.689Z,2.13
2022-12-23T05:08:06.020Z,2.14
2022-12-23T05:10:34.242Z,2.11
2022-12-23T05:13:02.526Z,2.08
2022-12-23T05:15:33.213Z,2.10
2022-12-23T05:18:01.744Z,2.14
2022-12-23T05:20:30.025Z,2.13
2022-12-23T05:22:58.401Z,2.11
2022-12-23T05:25:27.186Z,2.09
2022-12-23T05:27:55.707Z,2.08
2022-12-23T05:30:24.048Z,2.06
2022-12-23T05:32:56.835Z,1.98
2022-12-23T05:35:26.959Z,1.96
2022-12-23T05:37:55.075Z,1.97
2022-12-23T05:40:23.885Z,2.00
2022-12-23T05:42:56.773Z,1.92
2022-12-23T05:45:25.174Z,1.84
2022-12-23T05:47:53.548Z,1.75
2022-12-23T05:50:21.869Z,1.66
2022-12-23T05:52:50.756Z,1.58
2022-12-23T05:55:19.326Z,1.53
2022-12-23T05:57:47.837Z,1.57
2022-12-23T06:00:16.904Z,1.53
2022-12-23T06:02:51.765Z,1.47
2022-12-23T06:05:22.636Z,1.33
2022-12-23T06:07:50.853Z,1.20
2022-12-23T06:10:19.203Z,1.18
2022-12-23T06:12:47.626Z,1.17
2022-12-23T06:15:16.214Z,1.16
2022-12-23T06:17:45.239Z,1.14
2022-12-23T06:20:19.968Z,1.10
2022-12-23T06:22:49.435Z,1.08
2022-12-23T06:25:17.707Z,1.13
2022-12-23T06:27:47.034Z,1.13
2022-12-23T06:30:15.602Z,1.11
2022-12-23T06:32:43.916Z,1.13
2022-12-23T06:35:12.771Z,1.23
2022-12-23T06:37:40.923Z,1.30
2022-12-23T06:40:09.997Z,1.32
2022-12-23T06:42:38.523Z,1.34
2022-12-23T06:45:08.546Z,1.39
2022-12-23T06:47:37.567Z,1.41
2022-12-23T06:50:06.855Z,1.44
2022-12-23T06:52:35.091Z,1.52
2022-12-23T06:55:03.909Z,1.58
2022-12-23T06:57:32.085Z,1.51
2022-12-23T07:00:00.321Z,1.56
2022-12-23T07:02:28.590Z,1.68
2022-12-23T07:04:57.022Z,1.80
2022-12-23T07:07:25.224Z,1.82
2022-12-23T07:09:53.382Z,1.86
2022-12-23T07:12:21.696Z,1.87
2022-12-23T07:14:49.833Z,1.91
2022-12-23T07:17:18.111Z,2.00
2022-12-23T07:19:46.615Z,2.16
2022-12-23T07:22:14.973Z,2.31
2022-12-23T07:24:43.677Z,2.38
2022-12-23T07:27:13.728Z,2.48
2022-12-23T07:29:42.101Z,2.56
2022-12-23T07:32:10.342Z,2.66
2022-12-23T07:34:38.615Z,2.80
2022-12-23T07:37:06.997Z,2.93
2022-12-23T07:39:35.406Z,3.09
2022-12-23T07:42:33.834Z,3.28
2022-12-23T07:44:52.079Z,3.44
2022-12-23T07:47:20.587Z,3.58
2022-12-23T07:49:48.622Z,3.86
2022-12-23T07:52:18.477Z,4.21
2022-12-23T07:54:48.696Z,4.48
2022-12-23T07:57:18.204Z,4.74
2022-12-23T07:59:46.694Z,4.80
2022-12-23T08:02:15.086Z,4.99
2022-12-23T08:04:46.356Z,5.39
2022-12-23T08:07:15.014Z,5.69
2022-12-23T08:09:43.466Z,5.86
2022-12-23T08:12:11.500Z,5.77
2022-12-23T08:14:39.837Z,5.39
2022-12-23T08:17:08.535Z,5.27
2022-12-23T08:19:37.550Z,5.18
2022-12-23T08:22:06.519Z,4.99
2022-12-23T08:24:34.823Z,4.69
2022-12-23T08:27:02.979Z,4.59
2022-12-23T08:29:35.923Z,4.62
2022-12-23T08:32:04.897Z,4.65
2022-12-23T08:34:33.235Z,4.63
2022-12-23T08:37:02.440Z,4.56
2022-12-23T08:39:30.664Z,4.52
2022-12-23T08:41:59.201Z,4.54
2022-12-23T08:44:28.221Z,4.56
2022-12-23T08:46:56.501Z,4.58
2022-12-23T08:49:24.637Z,4.54
2022-12-23T08:51:52.845Z,4.42
2022-12-23T08:54:21.104Z,4.44
2022-12-23T08:56:49.681Z,4.49
2022-12-23T08:59:19.854Z,4.48
2022-12-23T09:01:48.857Z,4.47
2022-12-23T09:04:17.590Z,4.50
2022-12-23T09:06:45.877Z,4.48
2022-12-23T09:09:16.310Z,4.54
2022-12-23T09:11:44.726Z,4.55
2022-12-23T09:14:12.851Z,4.61
2022-12-23T09:16:41.331Z,4.67
2022-12-23T09:19:09.843Z,4.69
2022-12-23T09:21:38.095Z,4.74
2022-12-23T09:24:06.785Z,4.67
2022-12-23T09:26:34.869Z,4.61
2022-12-23T09:29:04.472Z,4.57
2022-12-23T09:31:37.083Z,4.52
2022-12-23T09:34:06.435Z,4.53
2022-12-23T09:36:34.744Z,4.58
2022-12-23T09:39:03.023Z,4.54
2022-12-23T09:41:39.617Z,4.46
2022-12-23T09:44:29.465Z,4.45
2022-12-23T09:47:02.416Z,4.39
2022-12-23T09:49:30.855Z,4.40
2022-12-23T09:52:03.933Z,4.31
2022-12-23T09:54:46.130Z,4.24
2022-12-23T09:57:23.424Z,4.22
2022-12-23T09:59:57.843Z,4.18
2022-12-23T10:02:53.630Z,4.13
2022-12-23T10:05:35.504Z,4.12
2022-12-23T10:08:13.268Z,4.13
2022-12-23T10:10:53.010Z,4.20
2022-12-23T10:13:36.137Z,4.24
2022-12-23T10:16:09.776Z,4.31
2022-12-23T10:18:48.047Z,4.33
2022-12-23T10:21:22.481Z,4.37
2022-12-23T10:23:54.059Z,4.38
2022-12-23T10:26:36.795Z,4.43
2022-12-23T10:29:19.602Z,4.47
2022-12-23T10:32:11.706Z,4.50
2022-12-23T10:35:01.114Z,4.58
2022-12-23T10:37:49.144Z,4.63
2022-12-23T10:40:31.458Z,4.74
2022-12-23T10:43:15.025Z,4.85
2022-12-23T10:45:52.485Z,4.94
2022-12-23T10:48:42.447Z,4.99
2022-12-23T10:51:23.199Z,5.00
2022-12-23T10:53:55.524Z,5.01
2022-12-23T10:56:25.223Z,4.98
2022-12-23T10:58:57.040Z,4.96
2022-12-23T11:01:27.711Z,4.97
2022-12-23T11:04:16.422Z,5.03
2022-12-23T11:06:55.875Z,5.07
2022-12-23T11:09:48.307Z,5.07
2022-12-23T11:12:22.040Z,5.00
2022-12-23T11:14:51.906Z,4.98
2022-12-23T11:17:29.965Z,5.02
2022-12-23T11:20:10.677Z,5.04
2022-12-23T11:22:55.509Z,5.04
2022-12-23T11:25:33.041Z,5.06
2022-12-23T11:28:11.563Z,5.13
2022-12-23T11:30:50.382Z,5.18
2022-12-23T11:33:27.561Z,5.17
2022-12-23T11:36:14.311Z,5.17
2022-12-23T11:38:53.092Z,5.18
2022-12-23T11:41:29.861Z,5.19
2022-12-23T11:44:06.834Z,5.18
2022-12-23T11:46:35.828Z,5.12
2022-12-23T11:49:11.474Z,5.09
2022-12-23T11:51:41.207Z,5.03
2022-12-23T11:54:17.237Z,5.01
2022-12-23T11:56:51.220Z,5.06
2022-12-23T11:59:38.606Z,5.07
2022-12-23T12:02:24.236Z,5.13
2022-12-23T12:05:18.557Z,5.19
2022-12-23T12:07:49.019Z,5.22
2022-12-23T12:10:28.872Z,5.23
2022-12-23T12:13:02.859Z,5.30
2022-12-23T12:15:37.793Z,5.28
2022-12-23T12:18:09.893Z,5.27
2022-12-23T12:20:43.457Z,5.24
2022-12-23T12:23:15.829Z,5.21
2022-12-23T12:25:47.182Z,5.22
2022-12-23T12:28:31.433Z,5.30
2022-12-23T12:31:03.679Z,5.31
2022-12-23T12:33:42.974Z,5.38
2022-12-23T12:36:41.540Z,5.46
2022-12-23T12:39:21.312Z,5.52
2022-12-23T12:42:00.139Z,5.57
2022-12-23T12:44:43.845Z,5.58
2022-12-23T12:47:56.015Z,5.59
2022-12-23T12:50:31.397Z,5.59
2022-12-23T12:53:06.587Z,5.55
2022-12-23T12:55:42.462Z,5.52
2022-12-23T12:58:21.367Z,5.51
2022-12-23T13:01:04.300Z,5.49
2022-12-23T13:03:42.860Z,5.54
2022-12-23T13:07:00.293Z,5.56
2022-12-23T13:09:42.399Z,5.61
2022-12-23T13:12:14.971Z,5.62
2022-12-23T13:14:55.952Z,5.59
2022-12-23T13:17:36.202Z,5.58
2022-12-23T13:20:22.727Z,5.55
2022-12-23T13:23:14.895Z,5.47
2022-12-23T13:25:58.618Z,5.52
2022-12-23T13:29:00.075Z,5.50
2022-12-23T13:31:44.508Z,5.49
2022-12-23T13:34:24.989Z,5.50
2022-12-23T13:37:29.176Z,5.50
2022-12-23T13:40:06.666Z,5.54
2022-12-23T13:42:40.693Z,5.52
2022-12-23T13:45:16.813Z,5.53
2022-12-23T13:47:51.194Z,5.53
2022-12-23T13:51:00.220Z,5.51
2022-12-23T13:54:02.289Z,5.45
2022-12-23T13:56:59.605Z,5.41
2022-12-23T13:59:41.981Z,5.40
2022-12-23T14:02:35.377Z,5.37
2022-12-23T14:05:09.309Z,5.38
2022-12-23T14:07:45.056Z,5.40
2022-12-23T14:10:23.218Z,5.40
2022-12-23T14:12:57.750Z,5.37
2022-12-23T14:15:45.152Z,5.33
2022-12-23T14:18:28.440Z,5.25
2022-12-23T14:21:41.564Z,5.20
2022-12-23T14:24:24.674Z,5.14
2022-12-23T14:27:05.155Z,5.08
2022-12-23T14:29:48.431Z,5.00
2022-12-23T14:32:22.280Z,4.91
2022-12-23T14:35:06.588Z,4.81
2022-12-23T14:37:36.314Z,4.61
2022-12-23T14:40:39.703Z,4.51
2022-12-23T14:43:23.685Z,4.46
2022-12-23T14:45:59.568Z,4.47
2022-12-23T14:48:34.147Z,4.43
2022-12-23T14:51:22.589Z,4.33
2022-12-23T14:53:59.881Z,4.29
2022-12-23T14:57:03.222Z,4.28
2022-12-23T15:00:00.446Z,4.25
2022-12-23T15:02:37.562Z,4.17
2022-12-23T15:05:07.142Z,4.10
2022-12-23T15:07:36.782Z,3.99
2022-12-23T15:10:26.526Z,3.89
2022-12-23T15:13:03.143Z,3.83
2022-12-23T15:15:31.469Z,3.81
2022-12-23T15:18:06.022Z,3.77
2022-12-23T15:20:35.455Z,3.73
2022-12-23T15:23:35.943Z,3.65
2022-12-23T15:26:04.825Z,3.61
2022-12-23T15:28:41.384Z,3.56
2022-12-23T15:31:43.360Z,3.53
2022-12-23T15:34:26.395Z,3.50
2022-12-23T15:36:55.519Z,3.48
2022-12-23T15:39:35.951Z,3.44
2022-12-23T15:42:05.357Z,3.43
2022-12-23T15:44:39.736Z,3.44
2022-12-23T15:47:30.272Z,3.38
2022-12-23T15:49:59.906Z,3.33
2022-12-23T15:52:30.673Z,3.31
2022-12-23T15:55:11.296Z,3.27
2022-12-23T15:57:49.955Z,3.28
2022-12-23T16:00:29.065Z,3.34
2022-12-23T16:03:01.083Z,3.33
2022-12-23T16:05:33.059Z,3.38
2022-12-23T16:08:13.542Z,3.40
2022-12-23T16:10:44.510Z,3.38
2022-12-23T16:13:20.630Z,3.35
2022-12-23T16:15:48.992Z,3.25
2022-12-23T16:18:22.425Z,3.18
2022-12-23T16:21:15.034Z,3.24
2022-12-23T16:23:52.468Z,3.23
2022-12-23T16:26:25.350Z,3.20
2022-12-23T16:28:59.472Z,3.19
2022-12-23T16:31:29.386Z,3.25
2022-12-23T16:33:58.995Z,3.26
2022-12-23T16:36:27.205Z,3.23
2022-12-23T16:39:00.788Z,3.25
2022-12-23T16:41:29.156Z,3.23
2022-12-23T16:43:58.209Z,3.25
2022-12-23T16:46:27.185Z,3.27
2022-12-23T16:49:01.298Z,3.27
2022-12-23T16:51:34.273Z,3.25
2022-12-23T16:54:02.664Z,3.27
2022-12-23T16:56:37.458Z,3.28
2022-12-23T16:59:06.355Z,3.22
2022-12-23T17:01:40.127Z,3.19
2022-12-23T17:04:08.955Z,3.23
2022-12-23T17:06:37.956Z,3.20
2022-12-23T17:09:09.236Z,3.12
2022-12-23T17:11:47.607Z,3.14
2022-12-23T17:14:19.605Z,3.17
2022-12-23T17:16:48.740Z,3.16
2022-12-23T17:19:23.392Z,3.12
2022-12-23T17:22:02.061Z,3.06
2022-12-23T17:24:30.306Z,3.02
2022-12-23T17:26:59.015Z,3.03
2022-12-23T17:29:27.298Z,2.96
2022-12-23T17:31:55.676Z,2.98
2022-12-23T17:34:25.263Z,2.93
2022-12-23T17:36:53.640Z,2.94
2022-12-23T17:39:22.627Z,2.96
2022-12-23T17:41:51.318Z,2.90
2022-12-23T17:44:20.535Z,2.86
2022-12-23T17:46:48.811Z,2.86
2022-12-23T17:49:17.079Z,2.82
2022-12-23T17:51:45.351Z,2.79
2022-12-23T17:54:23.172Z,2.77
2022-12-23T17:56:52.174Z,2.81
2022-12-23T17:59:21.945Z,2.79
2022-12-23T18:01:50.497Z,2.77
2022-12-23T18:04:18.870Z,2.80
2022-12-23T18:06:47.242Z,2.90
2022-12-23T18:09:16.937Z,2.98
2022-12-23T18:11:47.802Z,3.00
2022-12-23T18:14:20.449Z,3.03
2022-12-23T18:16:49.332Z,2.98
2022-12-23T18:19:21.443Z,2.99
2022-12-23T18:21:50.635Z,2.95
2022-12-23T18:24:19.014Z,2.98
2022-12-23T18:26:47.853Z,2.96
2022-12-23T18:29:16.056Z,2.92
2022-12-23T18:31:51.481Z,2.95
2022-12-23T18:34:21.097Z,2.86
2022-12-23T18:36:52.105Z,2.93
2022-12-23T18:39:21.256Z,3.02
2022-12-23T18:41:49.573Z,3.04
2022-12-23T18:44:20.787Z,3.01
2022-12-23T18:46:50.364Z,2.96
2022-12-23T18:49:19.372Z,2.94
2022-12-23T18:51:47.767Z,2.92
2022-12-23T18:54:17.169Z,2.85
2022-12-23T18:56:45.678Z,2.81
2022-12-23T18:59:27.429Z,2.80
2022-12-23T19:01:59.462Z,2.84
2022-12-23T19:04:27.709Z,2.92
2022-12-23T19:06:56.968Z,2.94
2022-12-23T19:09:25.895Z,2.93
2022-12-23T19:11:54.879Z,3.04
2022-12-23T19:14:23.499Z,3.15
2022-12-23T19:16:55.731Z,3.14
2022-12-23T19:19:24.210Z,3.06
2022-12-23T19:21:53.150Z,3.08
2022-12-23T19:24:21.274Z,3.15
2022-12-23T19:26:49.981Z,3.13
2022-12-23T19:29:20.630Z,3.14
2022-12-23T19:31:48.714Z,3.17
2022-12-23T19:34:17.152Z,3.18
2022-12-23T19:36:45.577Z,3.16
2022-12-23T19:39:16.822Z,3.19
2022-12-23T19:41:46.095Z,3.16
2022-12-23T19:44:15.019Z,3.20
2022-12-23T19:46:43.481Z,3.19
2022-12-23T19:49:17.743Z,3.15
2022-12-23T19:51:48.734Z,3.16
2022-12-23T19:54:18.866Z,3.22
2022-12-23T19:56:51.532Z,3.25
2022-12-23T19:59:20.869Z,3.20
2022-12-23T20:01:49.479Z,3.23
2022-12-23T20:04:17.763Z,3.21
2022-12-23T20:06:46.401Z,3.12
2022-12-23T20:09:14.654Z,3.11
2022-12-23T20:11:46.290Z,3.03
2022-12-23T20:14:17.685Z,3.05
2022-12-23T20:16:46.048Z,3.11
2022-12-23T20:19:14.837Z,3.14
2022-12-23T20:21:45.591Z,3.14
2022-12-23T20:24:15.196Z,3.13
2022-12-23T20:26:43.562Z,3.15
2022-12-23T20:29:12.470Z,3.19
2022-12-23T20:31:41.208Z,3.16
2022-12-23T20:34:16.553Z,3.23
2022-12-23T20:36:45.030Z,3.25
2022-12-23T20:39:14.234Z,3.30
2022-12-23T20:41:42.750Z,3.34
2022-12-23T20:46:59.241Z,3.37
2022-12-23T20:49:28.167Z,3.38
2022-12-23T20:51:56.446Z,3.41
2022-12-23T20:54:30.001Z,3.43
2022-12-23T20:57:02.498Z,3.49
2022-12-23T20:59:30.807Z,3.50
2022-12-23T21:01:59.561Z,3.50
2022-12-23T21:04:28.281Z,3.50
2022-12-23T21:06:56.562Z,3.45
2022-12-23T21:09:24.655Z,3.38
2022-12-23T21:11:53.021Z,3.41
2022-12-23T21:14:23.189Z,3.44
2022-12-23T21:16:51.702Z,3.44
2022-12-23T21:19:22.671Z,3.44
2022-12-23T21:21:52.390Z,3.38
2022-12-23T21:24:21.196Z,3.35
2022-12-23T21:26:56.004Z,3.32
2022-12-23T21:29:26.262Z,3.25
2022-12-23T21:31:55.880Z,3.29
2022-12-23T21:34:24.618Z,3.29
2022-12-23T21:36:53.158Z,3.32
2022-12-23T21:39:21.513Z,3.37
2022-12-23T21:41:51.706Z,3.29
2022-12-23T21:44:20.389Z,3.31
2022-12-23T21:46:51.152Z,3.34
2022-12-23T21:49:20.555Z,3.31
2022-12-23T21:51:49.096Z,3.27
2022-12-23T21:54:17.602Z,3.28
2022-12-23T21:56:45.779Z,3.38
2022-12-23T21:59:15.039Z,3.43
2022-12-23T22:01:44.045Z,3.38
2022-12-23T22:04:13.275Z,3.41
2022-12-23T22:06:44.410Z,3.38
2022-12-23T22:09:17.796Z,3.39
2022-12-23T22:11:47.993Z,3.45
2022-12-23T22:14:19.237Z,3.44
2022-12-23T22:16:47.665Z,3.40
2022-12-23T22:19:16.566Z,3.41
2022-12-23T22:21:44.719Z,3.38
2022-12-23T22:24:13.226Z,3.32
2022-12-23T22:26:42.132Z,3.33
2022-12-23T22:29:11.625Z,3.30
2022-12-23T22:31:45.066Z,3.26
2022-12-23T22:34:16.833Z,3.26
2022-12-23T22:36:45.837Z,3.22
2022-12-23T22:39:20.122Z,3.19
2022-12-23T22:41:53.116Z,3.13
2022-12-23T22:44:22.071Z,3.05
2022-12-23T22:46:50.538Z,3.06
2022-12-23T22:49:19.040Z,3.07
2022-12-23T22:51:47.527Z,3.07
2022-12-23T22:54:15.670Z,3.04
2022-12-23T22:56:46.136Z,2.92
2022-12-23T22:59:23.734Z,2.86
2022-12-23T23:01:53.559Z,2.81
2022-12-23T23:04:21.840Z,2.75
2022-12-23T23:06:50.617Z,2.64
2022-12-23T23:09:21.077Z,2.63
2022-12-23T23:11:50.373Z,2.61
2022-12-23T23:14:20.041Z,2.64
2022-12-23T23:16:48.712Z,2.50
2022-12-23T23:19:20.738Z,2.37
2022-12-23T23:21:49.316Z,2.25
2022-12-23T23:24:17.825Z,2.29
2022-12-23T23:26:46.150Z,2.34
2022-12-23T23:29:14.841Z,2.25
2022-12-23T23:31:44.185Z,2.15
2022-12-23T23:34:13.448Z,2.17
2022-12-23T23:36:42.120Z,2.12
2022-12-23T23:39:14.238Z,2.03
2022-12-23T23:41:43.004Z,1.97
2022-12-23T23:44:12.493Z,1.97
2022-12-23T23:46:41.095Z,2.00
2022-12-23T23:49:09.762Z,2.05
2022-12-23T23:51:38.693Z,1.97
2022-12-23T23:54:08.783Z,1.90
2022-12-23T23:56:39.243Z,1.83
2022-12-23T23:59:09.156Z,1.77
